Time;durP1;ratioP1;P1;durP2;ratioP2;P2;SDS_P1;SDS_P2;PMS_P1;PMS_P2;Temp;Humidity;BMP_temperature;BMP_pressure;BME280_temperature;BME280_humidity;BME280_pressure;Samples;Min_cycle;Max_cycle;Signal;HPM_P1;HPM_P2
2023/05/14 00:02:09;;;;;;;7.32;6.57;;;;;;;14.33;90.10;101843.16;4988892;28;20030;-62
2023/05/14 00:04:35;;;;;;;8.18;7.38;;;;;;;14.28;91.06;101846.59;4988346;28;20030;-63
2023/05/14 00:07:00;;;;;;;8.90;7.78;;;;;;;14.21;91.50;101839.47;4988315;28;20038;-63
2023/05/14 00:09:25;;;;;;;7.72;6.97;;;;;;;14.12;92.25;101846.38;4989985;28;20424;-63
2023/05/14 00:11:51;;;;;;;8.80;7.70;;;;;;;14.12;92.31;101843.63;4989765;28;20030;-64
2023/05/14 00:14:16;;;;;;;10.48;7.57;;;;;;;14.12;92.31;101849.13;4989979;28;20430;-63
2023/05/14 00:16:41;;;;;;;8.73;7.82;;;;;;;14.02;94.56;101846.91;4988022;28;20580;-63
2023/05/14 00:19:07;;;;;;;9.20;7.32;;;;;;;13.92;94.88;101844.69;4987950;28;20038;-64
2023/05/14 00:21:32;;;;;;;9.45;8.07;;;;;;;13.84;95.00;101845.00;4987405;28;20476;-63
2023/05/14 00:23:58;;;;;;;8.95;7.97;;;;;;;13.77;95.45;101845.03;4987781;28;20405;-63
2023/05/14 00:26:23;;;;;;;8.32;7.53;;;;;;;13.74;96.45;101837.22;4988578;28;20028;-63
2023/05/14 00:28:48;;;;;;;8.55;7.75;;;;;;;13.67;97.36;101841.94;4987650;28;20508;-64
2023/05/14 00:31:13;;;;;;;8.65;7.82;;;;;;;13.60;98.07;101840.34;4987895;28;20340;-63
2023/05/14 00:33:39;;;;;;;10.40;7.93;;;;;;;13.56;98.21;101837.19;4982204;28;20030;-63
2023/05/14 00:36:04;;;;;;;9.05;8.13;;;;;;;13.47;98.58;101828.34;4986714;28;20026;-64
2023/05/14 00:38:30;;;;;;;9.35;8.40;;;;;;;13.39;97.93;101836.91;4988327;28;20031;-63
2023/05/14 00:40:55;;;;;;;9.18;7.97;;;;;;;13.31;98.69;101825.31;4985989;28;20022;-64
2023/05/14 00:43:21;;;;;;;9.50;8.57;;;;;;;13.26;99.38;101822.38;4988913;28;20026;-64
2023/05/14 00:45:49;;;;;;;9.70;8.40;;;;;;;13.20;100.00;101826.84;4983693;28;20123;-63
2023/05/14 00:48:15;;;;;;;9.82;8.98;;;;;;;13.16;100.00;101823.69;4986142;28;20029;-63
2023/05/14 00:50:42;;;;;;;9.02;8.23;;;;;;;13.10;100.00;101818.22;4986943;28;20461;-64
2023/05/14 00:53:09;;;;;;;9.68;8.65;;;;;;;13.09;100.00;101820.13;4986432;28;20034;-63
2023/05/14 00:55:39;;;;;;;10.27;9.35;;;;;;;13.00;100.00;101824.22;4987161;28;20076;-64
2023/05/14 00:58:14;;;;;;;9.73;8.77;;;;;;;12.96;100.00;101809.19;4987694;28;20576;-63
2023/05/14 01:00:40;;;;;;;10.98;9.85;;;;;;;12.88;100.00;101810.31;4987480;28;20027;-63
2023/05/14 01:03:07;;;;;;;10.32;9.32;;;;;;;12.87;100.00;101805.00;4987969;28;20383;-62
2023/05/14 01:05:59;;;;;;;10.88;9.77;;;;;;;12.89;100.00;101811.16;4985747;28;20031;-63
2023/05/14 01:09:00;;;;;;;10.35;9.35;;;;;;;12.84;100.00;101820.09;4986035;28;20033;-63
2023/05/14 01:11:32;;;;;;;10.57;9.48;;;;;;;12.74;100.00;101822.50;4973041;28;20494;-63
2023/05/14 01:14:13;;;;;;;10.57;9.68;;;;;;;12.68;100.00;101815.13;4988391;28;20073;-63
2023/05/14 01:16:39;;;;;;;10.88;9.77;;;;;;;12.64;100.00;101819.38;4988159;28;20034;-62
2023/05/14 01:19:09;;;;;;;11.30;10.30;;;;;;;12.60;100.00;101816.22;4984070;28;20031;-63
2023/05/14 01:21:41;;;;;;;11.70;10.50;;;;;;;12.60;100.00;101815.38;4986386;28;20030;-63
2023/05/14 01:24:07;;;;;;;11.63;10.63;;;;;;;12.54;100.00;101805.22;4986168;28;20034;-63
2023/05/14 01:26:33;;;;;;;11.63;10.48;;;;;;;12.49;100.00;101800.38;4987760;28;20049;-63
2023/05/14 01:29:04;;;;;;;11.27;10.18;;;;;;;12.52;100.00;101807.34;4986908;28;20062;-63
2023/05/14 01:31:33;;;;;;;12.40;11.23;;;;;;;12.44;100.00;101802.94;4987479;28;20487;-64
2023/05/14 01:33:59;;;;;;;;;;;;;;;12.61;100.00;101806.03;4985848;28;20481;-63
2023/05/14 01:36:27;;;;;;;11.25;10.25;;;;;;;12.40;100.00;101802.53;4986777;28;19925;-64
2023/05/14 01:38:54;;;;;;;12.18;10.98;;;;;;;12.42;100.00;101794.91;4988417;28;20048;-63
2023/05/14 01:41:21;;;;;;;13.33;12.13;;;;;;;12.37;100.00;101800.25;4987861;28;20022;-63
2023/05/14 01:43:47;;;;;;;13.20;12.10;;;;;;;12.32;100.00;101797.28;4986808;28;20053;-63
2023/05/14 01:46:12;;;;;;;12.57;11.43;;;;;;;12.28;100.00;101797.94;4986709;28;20844;-63
2023/05/14 01:48:37;;;;;;;13.18;11.95;;;;;;;12.24;100.00;101796.69;4986584;28;20058;-62
2023/05/14 01:51:03;;;;;;;13.48;12.25;;;;;;;12.17;100.00;101797.56;4985440;28;20109;-63
2023/05/14 01:53:28;;;;;;;13.45;12.25;;;;;;;12.09;100.00;101802.47;4986258;28;20484;-63
2023/05/14 01:55:53;;;;;;;13.18;12.07;;;;;;;12.05;100.00;101803.97;4986979;28;20076;-63
2023/05/14 01:58:19;;;;;;;12.85;11.65;;;;;;;12.13;100.00;101806.47;4985757;28;20058;-65
2023/05/14 02:00:44;;;;;;;13.05;11.85;;;;;;;12.05;100.00;101795.69;4987977;28;20057;-64
2023/05/14 02:03:09;;;;;;;13.75;12.55;;;;;;;12.00;100.00;101799.09;4986289;28;20022;-63
2023/05/14 02:05:35;;;;;;;14.00;12.70;;;;;;;11.99;100.00;101799.31;4984170;28;20038;-63
2023/05/14 02:08:00;;;;;;;13.55;12.45;;;;;;;11.98;100.00;101795.72;4986585;28;20058;-63
2023/05/14 02:10:25;;;;;;;13.98;12.68;;;;;;;11.95;100.00;101790.63;4988212;28;20031;-63
2023/05/14 02:12:51;;;;;;;13.68;12.32;;;;;;;11.95;100.00;101791.47;4987144;28;20030;-61
2023/05/14 02:15:16;;;;;;;13.98;12.68;;;;;;;12.05;100.00;101801.19;4985143;28;20034;-62
2023/05/14 02:17:41;;;;;;;14.90;13.63;;;;;;;12.00;100.00;101793.59;4985564;28;20035;-61
2023/05/14 02:20:09;;;;;;;13.70;12.60;;;;;;;12.00;100.00;101792.75;4987048;28;20023;-62
2023/05/14 02:22:34;;;;;;;14.20;13.00;;;;;;;11.95;100.00;101788.72;4984068;28;20704;-62
2023/05/14 02:24:59;;;;;;;14.13;12.82;;;;;;;11.93;100.00;101788.13;4986212;28;20033;-60
2023/05/14 02:27:25;;;;;;;13.95;12.65;;;;;;;11.90;100.00;101782.19;4986906;28;20018;-61
2023/05/14 02:29:50;;;;;;;14.65;13.45;;;;;;;11.91;100.00;101781.13;4986991;28;20042;-62
2023/05/14 02:32:15;;;;;;;15.00;13.70;;;;;;;11.89;100.00;101777.75;4986138;28;20027;-61
2023/05/14 02:34:41;;;;;;;13.82;12.52;;;;;;;11.87;100.00;101788.16;4985441;28;20061;-61
2023/05/14 02:37:06;;;;;;;14.57;13.27;;;;;;;11.87;100.00;101780.72;4985680;28;20122;-61
2023/05/14 02:39:31;;;;;;;14.48;13.18;;;;;;;11.84;100.00;101783.91;4987141;28;20030;-62
2023/05/14 02:41:56;;;;;;;14.10;12.90;;;;;;;11.86;100.00;101781.81;4984749;28;20406;-61
2023/05/14 02:44:22;;;;;;;15.15;13.93;;;;;;;11.83;100.00;101779.47;4987408;28;20057;-62
2023/05/14 02:46:47;;;;;;;14.38;13.07;;;;;;;11.76;100.00;101786.88;4984904;28;20516;-60
2023/05/14 02:49:12;;;;;;;15.02;13.68;;;;;;;11.69;100.00;101781.38;4982609;28;20056;-61
2023/05/14 02:51:37;;;;;;;14.30;13.10;;;;;;;11.70;100.00;101790.47;4986437;28;20026;-61
2023/05/14 02:54:03;;;;;;;16.20;14.70;;;;;;;11.66;100.00;101781.81;4987044;28;20393;-61
2023/05/14 02:56:28;;;;;;;15.63;14.32;;;;;;;11.65;100.00;101785.59;4986022;28;20027;-60
2023/05/14 02:58:53;;;;;;;15.85;14.45;;;;;;;11.66;100.00;101787.31;4986581;28;20622;-62
2023/05/14 03:01:19;;;;;;;15.80;14.50;;;;;;;11.60;100.00;101779.91;4986952;28;20038;-60
2023/05/14 03:03:44;;;;;;;16.52;15.10;;;;;;;11.55;100.00;101785.19;4985216;28;20471;-61
2023/05/14 03:06:09;;;;;;;15.70;14.38;;;;;;;11.48;100.00;101778.88;4984599;28;20473;-61
2023/05/14 03:08:35;;;;;;;16.33;14.82;;;;;;;11.39;100.00;101774.66;4986879;28;20027;-61
2023/05/14 03:11:00;;;;;;;17.15;15.75;;;;;;;11.35;100.00;101774.25;4986121;28;20026;-61
2023/05/14 03:13:26;;;;;;;17.13;15.63;;;;;;;11.26;100.00;101769.19;4990568;28;20034;-61
2023/05/14 03:15:53;;;;;;;17.83;16.25;;;;;;;11.23;100.00;101764.94;4984376;28;20361;-61
2023/05/14 03:18:19;;;;;;;18.45;16.85;;;;;;;11.26;100.00;101766.44;4987290;28;20034;-60
2023/05/14 03:20:44;;;;;;;16.70;15.13;;;;;;;11.24;100.00;101771.28;4989267;28;20027;-61
2023/05/14 03:23:10;;;;;;;17.75;16.15;;;;;;;11.31;100.00;101763.88;4988523;28;20018;-60
2023/05/14 03:25:35;;;;;;;17.52;16.13;;;;;;;11.33;100.00;101770.84;4990369;28;20470;-61
2023/05/14 03:28:00;;;;;;;18.00;16.50;;;;;;;11.29;100.00;101766.84;4989570;28;20343;-61
2023/05/14 03:30:26;;;;;;;17.88;16.33;;;;;;;11.25;100.00;101767.47;4990173;28;20033;-61
2023/05/14 03:32:51;;;;;;;17.77;16.25;;;;;;;11.18;100.00;101761.97;4988166;28;20026;-62
2023/05/14 03:35:17;;;;;;;18.15;16.65;;;;;;;11.16;100.00;101758.59;4989023;28;20580;-61
2023/05/14 03:37:42;;;;;;;18.27;16.67;;;;;;;11.11;100.00;101763.91;4989239;28;20774;-61
2023/05/14 03:40:08;;;;;;;18.45;16.80;;;;;;;11.12;100.00;101762.84;4989257;28;20030;-62
2023/05/14 03:42:33;;;;;;;18.42;16.83;;;;;;;11.12;100.00;101754.59;4987118;28;20030;-61
2023/05/14 03:44:58;;;;;;;18.52;16.92;;;;;;;11.12;100.00;101758.19;4987979;28;20103;-61
2023/05/14 03:47:23;;;;;;;17.92;16.23;;;;;;;11.10;100.00;101764.94;4987887;28;20030;-61
2023/05/14 03:49:49;;;;;;;17.98;16.48;;;;;;;11.02;100.00;101759.66;4989485;28;20014;-61
2023/05/14 03:52:14;;;;;;;18.70;17.00;;;;;;;11.01;100.00;101763.47;4987661;28;20042;-61
2023/05/14 03:54:40;;;;;;;19.52;17.73;;;;;;;11.00;100.00;101765.38;4990255;28;20062;-61
2023/05/14 03:57:05;;;;;;;18.95;17.25;;;;;;;10.98;100.00;101758.38;4987771;28;20030;-61
2023/05/14 03:59:30;;;;;;;18.85;17.17;;;;;;;10.97;100.00;101756.69;4990184;28;20076;-61
2023/05/14 04:01:56;;;;;;;18.55;16.75;;;;;;;10.94;100.00;101760.69;4987422;28;20026;-61
2023/05/14 04:04:21;;;;;;;18.15;16.65;;;;;;;10.93;100.00;101761.78;4989079;28;20034;-61
2023/05/14 04:06:46;;;;;;;18.67;16.98;;;;;;;10.94;100.00;101759.84;4988675;28;20073;-61
2023/05/14 04:09:12;;;;;;;18.70;17.00;;;;;;;10.93;100.00;101752.69;4989178;28;20096;-60
2023/05/14 04:11:37;;;;;;;19.58;17.77;;;;;;;10.96;100.00;101763.25;4982413;28;20026;-62
2023/05/14 04:14:02;;;;;;;18.33;16.73;;;;;;;10.96;100.00;101755.03;4989354;28;20030;-61
2023/05/14 04:16:28;;;;;;;19.58;17.88;;;;;;;10.96;100.00;101752.28;4986740;28;20030;-61
2023/05/14 04:18:53;;;;;;;18.70;16.98;;;;;;;10.98;100.00;101753.72;4988626;28;20049;-61
2023/05/14 04:21:19;;;;;;;20.05;18.23;;;;;;;10.99;100.00;101747.16;4987160;28;20088;-61
2023/05/14 04:23:44;;;;;;;20.02;18.17;;;;;;;10.99;100.00;101743.59;4988137;28;20053;-61
2023/05/14 04:26:09;;;;;;;19.08;17.40;;;;;;;11.03;100.00;101762.19;4988656;28;20088;-61
2023/05/14 04:28:35;;;;;;;20.80;18.85;;;;;;;11.00;100.00;101757.13;4985786;28;20022;-61
2023/05/14 04:31:00;;;;;;;19.25;17.55;;;;;;;10.97;100.00;101754.78;4985364;28;20045;-61
2023/05/14 04:33:25;;;;;;;19.35;17.65;;;;;;;10.99;100.00;101757.31;4987249;28;20088;-61
2023/05/14 04:35:51;;;;;;;18.50;16.85;;;;;;;11.01;100.00;101761.56;4986926;28;20117;-62
2023/05/14 04:38:16;;;;;;;19.42;17.73;;;;;;;11.05;100.00;101759.22;4989641;28;20492;-61
2023/05/14 04:40:41;;;;;;;18.65;17.02;;;;;;;11.10;100.00;101753.94;4987379;28;20034;-61
2023/05/14 04:43:07;;;;;;;20.20;18.33;;;;;;;11.15;100.00;101754.16;4986496;28;20169;-61
2023/05/14 04:45:32;;;;;;;19.17;17.52;;;;;;;11.14;100.00;101756.06;4987522;28;20046;-61
2023/05/14 04:47:57;;;;;;;19.48;17.77;;;;;;;11.17;100.00;101749.28;4982467;28;20125;-61
2023/05/14 04:50:23;;;;;;;19.75;17.88;;;;;;;11.14;100.00;101749.72;4987550;28;20030;-61
2023/05/14 04:52:48;;;;;;;18.75;17.05;;;;;;;11.16;100.00;101758.59;4987072;28;20066;-62
2023/05/14 04:55:13;;;;;;;19.52;17.83;;;;;;;11.18;100.00;101756.47;4988112;28;20034;-61
2023/05/14 04:57:39;;;;;;;19.15;17.40;;;;;;;11.15;100.00;101749.53;4988291;28;20034;-61
2023/05/14 05:00:05;;;;;;;19.40;17.70;;;;;;;11.19;100.00;101769.16;4989126;28;20030;-60
2023/05/14 05:02:30;;;;;;;18.70;16.90;;;;;;;11.15;100.00;101757.78;4987458;28;20532;-61
2023/05/14 05:04:55;;;;;;;19.42;17.58;;;;;;;11.16;100.00;101753.13;4986177;28;20026;-61
2023/05/14 05:07:21;;;;;;;18.73;17.13;;;;;;;11.18;100.00;101761.97;4988189;28;20599;-61
2023/05/14 05:09:46;;;;;;;18.63;16.98;;;;;;;11.21;100.00;101755.22;4987512;28;20064;-62
2023/05/14 05:12:11;;;;;;;18.60;17.05;;;;;;;11.22;100.00;101763.25;4986077;28;20034;-61
2023/05/14 05:14:36;;;;;;;18.83;16.85;;;;;;;11.23;100.00;101759.44;4986882;28;20034;-61
2023/05/14 05:17:02;;;;;;;19.98;18.10;;;;;;;11.27;100.00;101760.72;4978667;28;20058;-61
2023/05/14 05:19:27;;;;;;;18.23;16.63;;;;;;;11.31;100.00;101755.63;4988701;28;20029;-61
2023/05/14 05:21:53;;;;;;;18.63;16.83;;;;;;;11.35;100.00;101762.38;4982517;28;20431;-60
2023/05/14 05:24:18;;;;;;;18.25;16.55;;;;;;;11.43;100.00;101771.25;4986431;28;20539;-61
2023/05/14 05:26:44;;;;;;;18.88;17.05;;;;;;;11.47;100.00;101776.34;4988024;28;20026;-61
2023/05/14 05:29:09;;;;;;;18.23;16.60;;;;;;;11.50;100.00;101764.91;4986375;28;20049;-61
2023/05/14 05:31:35;;;;;;;18.05;16.45;;;;;;;11.57;100.00;101769.34;4985648;28;20343;-61
2023/05/14 05:34:02;;;;;;;17.63;16.02;;;;;;;11.59;100.00;101769.13;4986829;28;20034;-61
2023/05/14 05:36:28;;;;;;;17.52;15.93;;;;;;;11.68;100.00;101767.84;4986990;28;20030;-61
2023/05/14 05:38:53;;;;;;;17.75;16.15;;;;;;;11.72;100.00;101762.75;4987214;28;20409;-61
2023/05/14 05:41:19;;;;;;;18.00;16.40;;;;;;;11.76;100.00;101770.38;4977533;28;20113;-62
2023/05/14 05:43:44;;;;;;;17.52;15.80;;;;;;;11.82;100.00;101772.28;4986484;28;20037;-61
2023/05/14 05:46:10;;;;;;;17.02;15.43;;;;;;;11.82;100.00;101771.44;4985291;28;20117;-60
2023/05/14 05:48:36;;;;;;;17.35;15.75;;;;;;;11.84;100.00;101775.66;4986498;28;20436;-61
2023/05/14 05:51:01;;;;;;;17.10;15.50;;;;;;;11.85;100.00;101774.56;4984624;28;20117;-61
2023/05/14 05:53:26;;;;;;;17.60;16.00;;;;;;;11.87;100.00;101777.13;4986241;28;20664;-61
2023/05/14 05:55:52;;;;;;;16.85;15.32;;;;;;;11.91;100.00;101784.75;4987778;28;20350;-61
2023/05/14 05:58:18;;;;;;;18.58;16.77;;;;;;;11.92;100.00;101791.94;4975728;28;20057;-61
2023/05/14 06:00:43;;;;;;;17.88;16.20;;;;;;;11.92;100.00;101791.94;4982017;28;20031;-61
2023/05/14 06:03:10;;;;;;;17.77;16.10;;;;;;;11.98;100.00;101790.22;4986111;28;20042;-61
2023/05/14 06:05:35;;;;;;;16.38;14.73;;;;;;;12.00;100.00;101784.50;4987510;28;20034;-61
2023/05/14 06:08:01;;;;;;;17.60;15.93;;;;;;;12.02;100.00;101787.88;4985689;28;20048;-61
2023/05/14 06:10:26;;;;;;;18.05;16.30;;;;;;;12.08;100.00;101776.00;4985954;28;20030;-61
2023/05/14 06:12:51;;;;;;;17.10;15.35;;;;;;;12.25;100.00;101784.59;4982372;28;20022;-61
2023/05/14 06:15:17;;;;;;;17.08;15.57;;;;;;;12.40;100.00;101785.16;4984603;28;20069;-61
2023/05/14 06:17:42;;;;;;;17.10;15.55;;;;;;;12.56;100.00;101786.56;4985765;28;20030;-61
2023/05/14 06:20:08;;;;;;;17.57;15.97;;;;;;;12.73;100.00;101782.22;4986329;28;20029;-61
2023/05/14 06:22:34;;;;;;;17.52;15.82;;;;;;;12.86;100.00;101787.63;4986286;28;20632;-61
2023/05/14 06:24:59;;;;;;;17.10;15.35;;;;;;;12.94;100.00;101786.53;4982936;28;20462;-61
2023/05/14 06:27:24;;;;;;;16.38;14.88;;;;;;;13.06;100.00;101784.72;4986877;28;20039;-61
2023/05/14 06:29:49;;;;;;;15.65;14.05;;;;;;;13.13;100.00;101793.81;4984981;28;20026;-61
2023/05/14 06:32:15;;;;;;;16.42;14.82;;;;;;;13.27;100.00;101794.56;4983434;28;20065;-61
2023/05/14 06:34:41;;;;;;;17.40;15.68;;;;;;;13.45;100.00;101791.84;4985885;28;20029;-61
2023/05/14 06:37:08;;;;;;;17.02;15.40;;;;;;;13.59;100.00;101789.81;4985698;28;20545;-61
2023/05/14 06:39:33;;;;;;;17.48;15.77;;;;;;;13.77;100.00;101794.50;4985002;28;20022;-61
2023/05/14 06:41:58;;;;;;;16.27;14.80;;;;;;;13.91;100.00;101787.75;4985312;28;20488;-61
2023/05/14 06:44:24;;;;;;;16.50;15.10;;;;;;;14.01;100.00;101790.81;4985962;28;20174;-61
2023/05/14 06:46:49;;;;;;;16.25;14.75;;;;;;;14.13;100.00;101787.28;4989099;28;20069;-61
2023/05/14 06:49:15;;;;;;;16.25;14.70;;;;;;;14.11;100.00;101786.69;4989309;28;20033;-61
2023/05/14 06:51:40;;;;;;;16.35;14.85;;;;;;;14.08;100.00;101789.91;4989206;28;20632;-61
2023/05/14 06:54:06;;;;;;;17.08;15.48;;;;;;;14.12;100.00;101782.84;4988754;28;20027;-61
2023/05/14 06:56:31;;;;;;;16.52;15.00;;;;;;;14.17;100.00;101783.00;4988891;28;20055;-61
2023/05/14 06:58:56;;;;;;;15.77;14.18;;;;;;;14.16;100.00;101781.31;4989910;28;20030;-61
2023/05/14 07:01:21;;;;;;;15.90;14.48;;;;;;;14.21;100.00;101778.69;4987368;28;20036;-61
2023/05/14 07:03:47;;;;;;;15.43;14.02;;;;;;;14.23;100.00;101780.13;4991698;28;20032;-61
2023/05/14 07:06:12;;;;;;;15.88;14.38;;;;;;;14.42;100.00;101785.63;4987398;28;20054;-61
2023/05/14 07:08:38;;;;;;;15.20;13.80;;;;;;;14.45;100.00;101774.97;4989495;28;20031;-61
2023/05/14 07:11:03;;;;;;;14.88;13.57;;;;;;;14.52;100.00;101788.72;4989217;28;20065;-61
2023/05/14 07:13:29;;;;;;;15.68;14.18;;;;;;;14.58;100.00;101778.66;4989530;28;20429;-62
2023/05/14 07:15:54;;;;;;;15.68;14.25;;;;;;;14.57;99.33;101788.88;4987755;28;20453;-62
2023/05/14 07:18:22;;;;;;;15.68;14.27;;;;;;;14.67;100.00;101788.31;4988045;28;20712;-61
2023/05/14 07:20:48;;;;;;;15.88;14.35;;;;;;;14.69;98.79;101777.84;4990241;28;20058;-61
2023/05/14 07:23:13;;;;;;;15.45;13.95;;;;;;;14.68;100.00;101785.28;4989661;28;20092;-61
2023/05/14 07:25:39;;;;;;;14.95;13.43;;;;;;;14.72;99.46;101789.28;4987465;28;20026;-62
2023/05/14 07:28:04;;;;;;;16.13;14.77;;;;;;;14.77;100.00;101783.88;4987747;28;20026;-62
2023/05/14 07:30:29;;;;;;;14.75;13.38;;;;;;;14.83;100.00;101782.09;4990006;28;20030;-61
2023/05/14 07:32:54;;;;;;;15.80;14.30;;;;;;;14.98;100.00;101784.41;4987485;28;20030;-62
2023/05/14 07:35:20;;;;;;;15.38;13.95;;;;;;;15.07;99.06;101784.94;4988771;28;20137;-62
2023/05/14 07:37:45;;;;;;;16.33;14.82;;;;;;;15.17;99.78;101786.03;4986949;28;20034;-62
2023/05/14 07:40:11;;;;;;;15.80;14.30;;;;;;;15.14;98.99;101780.94;4987379;28;20416;-62
2023/05/14 07:42:36;;;;;;;16.15;14.65;;;;;;;15.07;100.00;101782.16;4987429;28;20045;-62
2023/05/14 07:45:02;;;;;;;15.95;14.35;;;;;;;14.98;100.00;101779.72;4989052;28;20434;-62
2023/05/14 07:47:28;;;;;;;16.35;14.80;;;;;;;14.81;100.00;101775.97;4989233;28;20109;-62
2023/05/14 07:49:55;;;;;;;16.42;14.68;;;;;;;14.69;100.00;101775.06;4988757;28;20169;-62
2023/05/14 07:52:20;;;;;;;16.50;14.90;;;;;;;14.72;100.00;101777.38;4987059;28;20042;-63
2023/05/14 07:54:45;;;;;;;16.63;15.05;;;;;;;14.76;100.00;101782.19;4990385;28;20061;-62
2023/05/14 07:57:11;;;;;;;15.82;14.32;;;;;;;14.85;100.00;101777.19;4984981;28;20465;-62
2023/05/14 07:59:36;;;;;;;15.98;14.55;;;;;;;14.82;100.00;101776.81;4989957;28;20046;-62
2023/05/14 08:02:01;;;;;;;15.93;14.52;;;;;;;14.82;100.00;101774.03;4988343;28;20023;-62
2023/05/14 08:04:27;;;;;;;15.40;13.90;;;;;;;14.98;98.81;101774.19;4969653;28;20088;-61
2023/05/14 08:06:52;;;;;;;14.82;13.43;;;;;;;15.22;100.00;101774.25;4979212;28;20058;-62
2023/05/14 08:09:17;;;;;;;15.52;13.90;;;;;;;15.40;97.19;101779.66;4988376;28;20346;-63
2023/05/14 08:11:42;;;;;;;14.88;13.38;;;;;;;15.52;96.03;101780.50;4988451;28;20045;-62
2023/05/14 08:14:08;;;;;;;14.20;12.85;;;;;;;15.57;94.50;101771.50;4988844;28;20105;-62
2023/05/14 08:16:33;;;;;;;13.40;12.07;;;;;;;15.67;93.17;101771.75;5003234;28;20018;-62
2023/05/14 08:18:58;;;;;;;13.75;12.45;;;;;;;15.82;93.69;101774.03;4987927;28;20034;-62
2023/05/14 08:21:23;;;;;;;14.02;12.65;;;;;;;16.00;91.91;101773.84;4988436;28;20436;-62
2023/05/14 08:23:49;;;;;;;13.98;12.48;;;;;;;16.29;94.20;101773.91;4989139;28;20030;-63
2023/05/14 08:26:15;;;;;;;13.55;12.25;;;;;;;16.46;88.62;101769.25;4989183;28;20019;-62
2023/05/14 08:28:40;;;;;;;12.65;11.40;;;;;;;16.48;89.08;101771.78;4987611;28;20034;-62
2023/05/14 08:31:05;;;;;;;12.10;10.93;;;;;;;16.48;85.77;101767.09;4987874;28;20022;-62
2023/05/14 08:33:30;;;;;;;13.68;12.38;;;;;;;16.48;88.37;101760.69;4987413;28;20057;-62
2023/05/14 08:35:59;;;;;;;12.05;10.95;;;;;;;16.65;88.70;101760.72;4986803;28;20531;-62
2023/05/14 08:38:24;;;;;;;12.20;11.07;;;;;;;16.88;88.29;101763.41;4986829;28;20035;-62
2023/05/14 08:40:59;;;;;;;12.55;11.45;;;;;;;16.99;86.74;101762.50;4987809;28;20026;-62
2023/05/14 08:43:28;;;;;;;12.27;11.15;;;;;;;17.14;85.27;101758.31;4988628;28;20026;-61
2023/05/14 08:45:59;;;;;;;12.05;10.85;;;;;;;17.22;82.21;101764.25;4987473;28;20050;-62
2023/05/14 08:48:30;;;;;;;12.30;11.18;;;;;;;17.31;87.43;101761.91;4987627;28;20133;-62
2023/05/14 08:50:56;;;;;;;11.63;10.35;;;;;;;17.38;82.80;101754.22;4987141;28;20038;-62
2023/05/14 08:53:22;;;;;;;11.93;10.43;;;;;;;17.64;85.13;101749.91;4988471;28;20428;-61
2023/05/14 08:55:50;;;;;;;12.48;10.68;;;;;;;17.84;81.35;101753.00;4988387;28;20088;-62
2023/05/14 08:58:15;;;;;;;11.40;10.23;;;;;;;17.95;78.56;101750.38;4987294;28;20058;-61
2023/05/14 09:00:41;;;;;;;10.88;9.77;;;;;;;18.14;79.71;101748.91;4987659;28;20508;-62
2023/05/14 09:03:06;;;;;;;11.52;9.93;;;;;;;18.14;78.93;101740.56;4987947;28;20035;-61
2023/05/14 09:05:32;;;;;;;10.50;9.40;;;;;;;18.29;79.34;101745.47;4988371;28;20026;-62
2023/05/14 09:07:58;;;;;;;12.07;10.10;;;;;;;18.44;83.03;101742.03;4986988;28;20076;-62
2023/05/14 09:10:23;;;;;;;11.20;10.00;;;;;;;18.46;79.96;101737.91;4987819;28;20030;-62
2023/05/14 09:12:49;;;;;;;11.07;9.93;;;;;;;18.60;81.73;101736.41;4987665;28;20027;-62
2023/05/14 09:15:14;;;;;;;10.65;9.65;;;;;;;18.80;80.27;101732.13;4988279;28;20544;-62
2023/05/14 09:17:39;;;;;;;11.15;9.43;;;;;;;18.81;76.62;101734.69;4986831;28;20437;-62
2023/05/14 09:20:05;;;;;;;10.07;9.10;;;;;;;18.99;81.10;101736.22;4987223;28;20031;-62
2023/05/14 09:22:31;;;;;;;10.70;9.43;;;;;;;19.31;77.56;101726.97;4986020;28;20031;-62
2023/05/14 09:25:05;;;;;;;11.25;9.68;;;;;;;21.17;74.70;101715.91;4987875;28;20477;-61
2023/05/14 09:27:32;;;;;;;9.63;7.72;;;;;;;23.31;63.14;101719.59;4986031;28;20030;-61
2023/05/14 09:30:07;;;;;;;9.68;7.53;;;;;;;24.87;54.93;101722.69;4988083;28;20386;-61
2023/05/14 09:32:37;;;;;;;9.48;7.00;;;;;;;26.16;52.14;101722.00;4986383;28;20126;-62
2023/05/14 09:35:20;;;;;;;8.43;6.43;;;;;;;27.53;53.76;101721.47;4986841;28;20156;-62
2023/05/14 09:37:47;;;;;;;8.70;6.30;;;;;;;28.29;45.71;101723.25;4985378;28;20031;-61
2023/05/14 09:40:13;;;;;;;6.95;6.10;;;;;;;28.80;44.18;101719.66;4988031;28;20066;-62
2023/05/14 09:42:40;;;;;;;8.18;6.03;;;;;;;28.83;39.18;101721.78;4985747;28;20160;-60
2023/05/14 09:45:07;;;;;;;7.90;5.95;;;;;;;29.17;39.53;101725.78;4986605;28;20057;-60
2023/05/14 09:47:32;;;;;;;8.57;6.20;;;;;;;29.12;37.50;101714.66;4978639;28;20383;-60
2023/05/14 09:49:57;;;;;;;8.10;6.30;;;;;;;29.43;39.38;101709.56;4987598;28;20029;-61
2023/05/14 09:52:23;;;;;;;7.28;5.88;;;;;;;29.36;37.61;101717.75;4986024;28;20026;-61
2023/05/14 09:54:52;;;;;;;8.50;6.05;;;;;;;29.51;36.22;101705.06;4986075;28;20033;-61
2023/05/14 09:57:18;;;;;;;7.30;5.90;;;;;;;29.73;37.04;101699.16;4987323;28;20045;-64
2023/05/14 09:59:43;;;;;;;7.68;6.05;;;;;;;30.03;36.26;101707.66;4988098;28;20023;-63
2023/05/14 10:02:20;;;;;;;8.00;6.30;;;;;;;30.26;37.79;101705.34;4986574;28;20030;-63
2023/05/14 10:04:47;;;;;;;8.35;5.68;;;;;;;29.79;35.79;101702.63;4984461;28;20046;-64
2023/05/14 10:07:13;;;;;;;7.50;5.88;;;;;;;29.98;36.61;101714.34;4986476;28;20034;-64
2023/05/14 10:09:42;;;;;;;9.00;5.63;;;;;;;29.98;36.22;101711.50;4984294;28;20125;-63
2023/05/14 10:12:07;;;;;;;6.80;5.20;;;;;;;30.65;35.23;101703.22;4986303;28;20386;-63
2023/05/14 10:14:41;;;;;;;7.13;5.30;;;;;;;30.88;34.96;101701.72;4986570;28;20033;-63
2023/05/14 10:17:16;;;;;;;8.25;5.28;;;;;;;31.18;34.95;101702.44;4985799;28;20042;-63
2023/05/14 10:19:46;;;;;;;7.60;5.32;;;;;;;31.33;33.90;101692.44;4988516;28;20022;-63
2023/05/14 10:22:16;;;;;;;6.85;4.80;;;;;;;31.63;35.83;101695.06;4989976;28;20157;-63
2023/05/14 10:24:41;;;;;;;34.47;11.38;;;;;;;31.31;32.67;101689.09;4993250;28;20089;-64
2023/05/14 10:27:07;;;;;;;13.98;6.55;;;;;;;30.71;32.31;101694.19;4993714;28;20027;-64
2023/05/14 10:29:34;;;;;;;10.20;5.88;;;;;;;30.54;33.69;101690.66;4993843;28;20123;-63
2023/05/14 10:32:06;;;;;;;8.70;5.10;;;;;;;30.69;34.61;101684.34;4990757;28;20080;-64
2023/05/14 10:34:42;;;;;;;8.35;5.38;;;;;;;31.09;33.88;101681.81;4991832;28;20046;-63
2023/05/14 10:37:10;;;;;;;6.82;5.40;;;;;;;31.47;31.89;101680.72;4992747;28;20030;-63
2023/05/14 10:39:42;;;;;;;7.72;5.40;;;;;;;31.63;34.27;101690.22;4992139;28;20030;-63
2023/05/14 10:42:15;;;;;;;7.38;4.82;;;;;;;31.32;31.64;101676.56;4991949;28;20144;-63
2023/05/14 10:45:08;;;;;;;6.75;4.65;;;;;;;31.33;34.36;101668.91;4991785;28;20036;-63
2023/05/14 10:47:36;;;;;;;36.35;11.77;;;;;;;30.25;32.61;101672.53;4971093;28;20106;-63
2023/05/14 10:50:03;;;;;;;7.55;4.75;;;;;;;29.44;35.35;101674.41;4981472;28;20436;-63
2023/05/14 10:52:29;;;;;;;;;;;;;;;29.00;38.58;101669.25;4992470;28;20046;-63
2023/05/14 10:54:57;;;;;;;7.43;5.18;;;;;;;27.65;39.12;101676.53;4992281;28;19988;-63
2023/05/14 10:57:28;;;;;;;6.50;4.60;;;;;;;26.89;41.60;101659.69;4992121;28;20026;-63
2023/05/14 10:59:56;;;;;;;5.35;4.38;;;;;;;26.13;43.46;101664.31;4986673;28;20096;-63
2023/05/14 11:02:31;;;;;;;6.82;4.30;;;;;;;25.78;46.08;101654.69;4985437;28;20428;-63
2023/05/14 11:05:04;;;;;;;6.90;4.90;;;;;;;25.27;40.70;101661.31;4986393;28;20053;-64
2023/05/14 11:07:51;;;;;;;6.00;4.88;;;;;;;24.98;46.79;101653.09;4991884;28;20027;-62